sensor_id;sensor_type;location;lat;lon;timestamp;P1;durP1;ratioP1;P2;durP2;ratioP2
30096;SDS011;16915;51.466;3.610;2023-03-14T00:00:34;11.88;;;1.02;;
30096;SDS011;16915;51.466;3.610;2023-03-14T00:03:00;2.97;;;0.90;;
30096;SDS011;16915;51.466;3.610;2023-03-14T00:05:26;6.60;;;0.93;;
30096;SDS011;16915;51.466;3.610;2023-03-14T00:07:51;11.20;;;1.20;;
30096;SDS011;16915;51.466;3.610;2023-03-14T00:10:17;8.63;;;1.30;;
30096;SDS011;16915;51.466;3.610;2023-03-14T00:12:43;7.50;;;1.63;;
30096;SDS011;16915;51.466;3.610;2023-03-14T00:15:09;6.25;;;1.23;;
30096;SDS011;16915;51.466;3.610;2023-03-14T00:17:35;10.23;;;1.30;;
30096;SDS011;16915;51.466;3.610;2023-03-14T00:20:02;11.00;;;1.40;;
30096;SDS011;16915;51.466;3.610;2023-03-14T00:22:33;12.25;;;1.92;;
30096;SDS011;16915;51.466;3.610;2023-03-14T00:24:59;10.73;;;1.70;;
30096;SDS011;16915;51.466;3.610;2023-03-14T00:27:25;14.40;;;1.60;;
30096;SDS011;16915;51.466;3.610;2023-03-14T00:29:51;10.10;;;1.85;;
30096;SDS011;16915;51.466;3.610;2023-03-14T00:32:17;12.30;;;1.30;;
30096;SDS011;16915;51.466;3.610;2023-03-14T00:34:42;6.13;;;1.50;;
30096;SDS011;16915;51.466;3.610;2023-03-14T00:37:08;10.43;;;1.20;;
30096;SDS011;16915;51.466;3.610;2023-03-14T00:39:33;9.73;;;1.63;;
30096;SDS011;16915;51.466;3.610;2023-03-14T00:41:59;8.30;;;1.48;;
30096;SDS011;16915;51.466;3.610;2023-03-14T00:44:24;10.10;;;1.50;;
30096;SDS011;16915;51.466;3.610;2023-03-14T00:46:50;13.07;;;1.55;;
30096;SDS011;16915;51.466;3.610;2023-03-14T00:49:16;7.88;;;1.02;;
30096;SDS011;16915;51.466;3.610;2023-03-14T00:51:41;7.05;;;1.05;;
30096;SDS011;16915;51.466;3.610;2023-03-14T00:54:07;7.00;;;1.10;;
30096;SDS011;16915;51.466;3.610;2023-03-14T00:56:32;8.13;;;1.00;;
30096;SDS011;16915;51.466;3.610;2023-03-14T00:58:58;5.22;;;0.88;;
30096;SDS011;16915;51.466;3.610;2023-03-14T01:01:23;8.90;;;1.17;;
30096;SDS011;16915;51.466;3.610;2023-03-14T01:03:52;5.80;;;0.90;;
30096;SDS011;16915;51.466;3.610;2023-03-14T01:06:21;8.05;;;1.02;;
30096;SDS011;16915;51.466;3.610;2023-03-14T01:08:51;8.90;;;1.20;;
30096;SDS011;16915;51.466;3.610;2023-03-14T01:11:23;9.52;;;1.10;;
30096;SDS011;16915;51.466;3.610;2023-03-14T01:13:50;3.58;;;0.68;;
30096;SDS011;16915;51.466;3.610;2023-03-14T01:16:17;3.75;;;1.05;;
30096;SDS011;16915;51.466;3.610;2023-03-14T01:18:44;10.93;;;1.35;;
30096;SDS011;16915;51.466;3.610;2023-03-14T01:21:12;5.90;;;1.50;;
30096;SDS011;16915;51.466;3.610;2023-03-14T01:23:44;9.00;;;1.20;;
30096;SDS011;16915;51.466;3.610;2023-03-14T01:26:14;5.93;;;1.13;;
30096;SDS011;16915;51.466;3.610;2023-03-14T01:28:43;8.40;;;1.70;;
30096;SDS011;16915;51.466;3.610;2023-03-14T01:31:10;6.57;;;1.30;;
30096;SDS011;16915;51.466;3.610;2023-03-14T01:33:36;8.95;;;1.90;;
30096;SDS011;16915;51.466;3.610;2023-03-14T01:36:02;6.53;;;1.17;;
30096;SDS011;16915;51.466;3.610;2023-03-14T01:38:29;8.02;;;1.77;;
30096;SDS011;16915;51.466;3.610;2023-03-14T01:40:55;6.68;;;1.38;;
30096;SDS011;16915;51.466;3.610;2023-03-14T01:43:21;5.30;;;1.42;;
30096;SDS011;16915;51.466;3.610;2023-03-14T01:46:06;7.53;;;1.35;;
30096;SDS011;16915;51.466;3.610;2023-03-14T01:48:55;7.40;;;1.60;;
30096;SDS011;16915;51.466;3.610;2023-03-14T01:54:28;11.13;;;1.67;;
30096;SDS011;16915;51.466;3.610;2023-03-14T01:57:06;8.80;;;1.27;;
30096;SDS011;16915;51.466;3.610;2023-03-14T01:59:38;7.80;;;1.35;;
30096;SDS011;16915;51.466;3.610;2023-03-14T02:02:07;19.27;;;1.83;;
30096;SDS011;16915;51.466;3.610;2023-03-14T02:04:36;11.77;;;1.92;;
30096;SDS011;16915;51.466;3.610;2023-03-14T02:09:43;8.40;;;2.42;;
30096;SDS011;16915;51.466;3.610;2023-03-14T02:12:09;8.43;;;1.70;;
30096;SDS011;16915;51.466;3.610;2023-03-14T02:14:37;11.30;;;1.80;;
30096;SDS011;16915;51.466;3.610;2023-03-14T02:17:03;12.18;;;1.55;;
30096;SDS011;16915;51.466;3.610;2023-03-14T02:22:09;9.05;;;1.55;;
30096;SDS011;16915;51.466;3.610;2023-03-14T02:27:26;8.43;;;1.70;;
30096;SDS011;16915;51.466;3.610;2023-03-14T02:29:53;5.97;;;1.20;;
30096;SDS011;16915;51.466;3.610;2023-03-14T02:32:24;6.22;;;0.90;;
30096;SDS011;16915;51.466;3.610;2023-03-14T02:34:59;9.40;;;1.50;;
30096;SDS011;16915;51.466;3.610;2023-03-14T02:40:25;6.43;;;1.05;;
30096;SDS011;16915;51.466;3.610;2023-03-14T02:42:51;4.90;;;1.35;;
30096;SDS011;16915;51.466;3.610;2023-03-14T02:47:43;7.60;;;1.63;;
30096;SDS011;16915;51.466;3.610;2023-03-14T02:50:19;8.85;;;1.70;;
30096;SDS011;16915;51.466;3.610;2023-03-14T02:52:46;9.40;;;2.65;;
30096;SDS011;16915;51.466;3.610;2023-03-14T02:55:12;10.63;;;1.08;;
30096;SDS011;16915;51.466;3.610;2023-03-14T02:57:37;7.95;;;1.00;;
30096;SDS011;16915;51.466;3.610;2023-03-14T03:00:03;7.43;;;1.17;;
30096;SDS011;16915;51.466;3.610;2023-03-14T03:02:30;4.43;;;0.95;;
30096;SDS011;16915;51.466;3.610;2023-03-14T03:04:56;4.72;;;1.20;;
30096;SDS011;16915;51.466;3.610;2023-03-14T03:07:21;5.55;;;1.20;;
30096;SDS011;16915;51.466;3.610;2023-03-14T03:09:47;3.33;;;1.10;;
30096;SDS011;16915;51.466;3.610;2023-03-14T03:12:12;6.07;;;0.73;;
30096;SDS011;16915;51.466;3.610;2023-03-14T03:14:38;5.40;;;1.10;;
30096;SDS011;16915;51.466;3.610;2023-03-14T03:17:04;6.00;;;0.90;;
30096;SDS011;16915;51.466;3.610;2023-03-14T03:19:30;7.30;;;1.13;;
30096;SDS011;16915;51.466;3.610;2023-03-14T03:21:56;7.15;;;1.15;;
30096;SDS011;16915;51.466;3.610;2023-03-14T03:24:22;8.18;;;0.90;;
30096;SDS011;16915;51.466;3.610;2023-03-14T03:26:48;5.68;;;0.80;;
30096;SDS011;16915;51.466;3.610;2023-03-14T03:29:14;4.70;;;0.77;;
30096;SDS011;16915;51.466;3.610;2023-03-14T03:31:39;8.30;;;1.20;;
30096;SDS011;16915;51.466;3.610;2023-03-14T03:34:05;9.90;;;0.88;;
30096;SDS011;16915;51.466;3.610;2023-03-14T03:36:30;3.35;;;0.70;;
30096;SDS011;16915;51.466;3.610;2023-03-14T03:38:56;2.42;;;0.60;;
30096;SDS011;16915;51.466;3.610;2023-03-14T03:41:22;2.53;;;0.70;;
30096;SDS011;16915;51.466;3.610;2023-03-14T03:43:47;3.38;;;0.60;;
30096;SDS011;16915;51.466;3.610;2023-03-14T03:46:13;7.03;;;1.10;;
30096;SDS011;16915;51.466;3.610;2023-03-14T03:56:25;1.85;;;0.63;;
30096;SDS011;16915;51.466;3.610;2023-03-14T03:58:51;5.22;;;1.35;;
30096;SDS011;16915;51.466;3.610;2023-03-14T04:01:16;2.58;;;0.60;;
30096;SDS011;16915;51.466;3.610;2023-03-14T04:03:42;2.25;;;0.63;;
30096;SDS011;16915;51.466;3.610;2023-03-14T04:06:09;3.60;;;0.70;;
30096;SDS011;16915;51.466;3.610;2023-03-14T04:08:36;1.17;;;0.45;;
30096;SDS011;16915;51.466;3.610;2023-03-14T04:11:02;2.92;;;0.90;;
30096;SDS011;16915;51.466;3.610;2023-03-14T04:13:29;2.22;;;0.52;;
30096;SDS011;16915;51.466;3.610;2023-03-14T04:15:55;1.35;;;0.32;;
30096;SDS011;16915;51.466;3.610;2023-03-14T04:18:21;1.73;;;0.50;;
30096;SDS011;16915;51.466;3.610;2023-03-14T04:20:52;4.22;;;1.00;;
30096;SDS011;16915;51.466;3.610;2023-03-14T04:23:19;3.17;;;0.52;;
30096;SDS011;16915;51.466;3.610;2023-03-14T04:25:46;1.58;;;0.60;;
30096;SDS011;16915;51.466;3.610;2023-03-14T04:28:12;2.08;;;0.60;;
30096;SDS011;16915;51.466;3.610;2023-03-14T04:30:37;2.72;;;0.70;;
30096;SDS011;16915;51.466;3.610;2023-03-14T04:33:03;3.88;;;0.75;;
30096;SDS011;16915;51.466;3.610;2023-03-14T04:35:30;7.00;;;0.93;;
30096;SDS011;16915;51.466;3.610;2023-03-14T04:37:56;2.08;;;0.55;;
30096;SDS011;16915;51.466;3.610;2023-03-14T04:40:21;3.10;;;0.90;;
30096;SDS011;16915;51.466;3.610;2023-03-14T04:42:47;2.67;;;0.65;;
30096;SDS011;16915;51.466;3.610;2023-03-14T04:45:13;7.47;;;0.95;;
30096;SDS011;16915;51.466;3.610;2023-03-14T04:47:38;3.22;;;0.52;;
30096;SDS011;16915;51.466;3.610;2023-03-14T04:50:04;3.25;;;0.50;;
30096;SDS011;16915;51.466;3.610;2023-03-14T04:52:30;4.90;;;0.75;;
30096;SDS011;16915;51.466;3.610;2023-03-14T04:54:55;3.00;;;0.93;;
30096;SDS011;16915;51.466;3.610;2023-03-14T04:57:21;2.03;;;0.73;;
30096;SDS011;16915;51.466;3.610;2023-03-14T04:59:47;2.30;;;0.73;;
30096;SDS011;16915;51.466;3.610;2023-03-14T05:02:12;5.60;;;0.80;;
30096;SDS011;16915;51.466;3.610;2023-03-14T05:04:38;3.25;;;0.80;;
30096;SDS011;16915;51.466;3.610;2023-03-14T05:07:03;3.17;;;0.65;;
30096;SDS011;16915;51.466;3.610;2023-03-14T05:09:29;2.03;;;0.90;;
30096;SDS011;16915;51.466;3.610;2023-03-14T05:11:54;4.93;;;0.75;;
30096;SDS011;16915;51.466;3.610;2023-03-14T05:14:20;5.75;;;0.57;;
30096;SDS011;16915;51.466;3.610;2023-03-14T05:16:45;12.82;;;1.15;;
30096;SDS011;16915;51.466;3.610;2023-03-14T05:19:11;2.65;;;0.52;;
30096;SDS011;16915;51.466;3.610;2023-03-14T05:21:37;3.40;;;0.50;;
30096;SDS011;16915;51.466;3.610;2023-03-14T05:24:02;6.20;;;0.70;;
30096;SDS011;16915;51.466;3.610;2023-03-14T05:26:28;4.03;;;0.70;;
30096;SDS011;16915;51.466;3.610;2023-03-14T05:28:54;3.30;;;0.68;;
30096;SDS011;16915;51.466;3.610;2023-03-14T05:31:20;8.27;;;0.65;;
30096;SDS011;16915;51.466;3.610;2023-03-14T05:33:45;5.57;;;0.47;;
30096;SDS011;16915;51.466;3.610;2023-03-14T05:36:11;4.80;;;0.70;;
30096;SDS011;16915;51.466;3.610;2023-03-14T05:38:36;5.28;;;0.55;;
30096;SDS011;16915;51.466;3.610;2023-03-14T05:41:02;4.55;;;0.82;;
30096;SDS011;16915;51.466;3.610;2023-03-14T05:43:28;3.63;;;0.65;;
30096;SDS011;16915;51.466;3.610;2023-03-14T05:45:53;2.20;;;0.28;;
30096;SDS011;16915;51.466;3.610;2023-03-14T05:48:19;5.13;;;0.38;;
30096;SDS011;16915;51.466;3.610;2023-03-14T05:50:46;1.92;;;0.45;;
30096;SDS011;16915;51.466;3.610;2023-03-14T05:53:12;5.22;;;0.60;;
30096;SDS011;16915;51.466;3.610;2023-03-14T05:55:38;5.75;;;0.82;;
30096;SDS011;16915;51.466;3.610;2023-03-14T05:58:04;1.40;;;0.25;;
30096;SDS011;16915;51.466;3.610;2023-03-14T06:00:30;1.70;;;0.43;;
30096;SDS011;16915;51.466;3.610;2023-03-14T06:02:56;7.30;;;0.57;;
30096;SDS011;16915;51.466;3.610;2023-03-14T06:05:21;6.40;;;0.70;;
30096;SDS011;16915;51.466;3.610;2023-03-14T06:07:47;8.80;;;0.65;;
30096;SDS011;16915;51.466;3.610;2023-03-14T06:10:12;6.78;;;0.80;;
30096;SDS011;16915;51.466;3.610;2023-03-14T06:12:38;7.10;;;0.57;;
30096;SDS011;16915;51.466;3.610;2023-03-14T06:15:04;4.57;;;0.55;;
30096;SDS011;16915;51.466;3.610;2023-03-14T06:17:30;5.25;;;0.50;;
30096;SDS011;16915;51.466;3.610;2023-03-14T06:19:55;8.38;;;0.75;;
30096;SDS011;16915;51.466;3.610;2023-03-14T06:22:21;2.40;;;0.73;;
30096;SDS011;16915;51.466;3.610;2023-03-14T06:24:46;3.90;;;0.40;;
30096;SDS011;16915;51.466;3.610;2023-03-14T06:27:12;5.38;;;0.40;;
30096;SDS011;16915;51.466;3.610;2023-03-14T06:29:37;7.03;;;0.65;;
30096;SDS011;16915;51.466;3.610;2023-03-14T06:32:03;3.50;;;0.90;;
30096;SDS011;16915;51.466;3.610;2023-03-14T06:34:30;8.10;;;0.80;;
30096;SDS011;16915;51.466;3.610;2023-03-14T06:36:55;2.38;;;0.65;;
30096;SDS011;16915;51.466;3.610;2023-03-14T06:39:21;4.43;;;0.70;;
30096;SDS011;16915;51.466;3.610;2023-03-14T06:41:46;7.72;;;0.55;;
30096;SDS011;16915;51.466;3.610;2023-03-14T06:44:12;8.20;;;0.55;;
30096;SDS011;16915;51.466;3.610;2023-03-14T06:46:37;6.30;;;0.70;;
30096;SDS011;16915;51.466;3.610;2023-03-14T06:49:03;3.95;;;0.35;;
30096;SDS011;16915;51.466;3.610;2023-03-14T06:51:28;10.25;;;0.85;;
30096;SDS011;16915;51.466;3.610;2023-03-14T06:53:54;3.03;;;0.77;;
30096;SDS011;16915;51.466;3.610;2023-03-14T06:56:19;11.60;;;0.80;;
30096;SDS011;16915;51.466;3.610;2023-03-14T06:58:45;6.30;;;0.85;;
30096;SDS011;16915;51.466;3.610;2023-03-14T07:01:19;4.63;;;0.70;;
30096;SDS011;16915;51.466;3.610;2023-03-14T07:03:47;4.10;;;0.60;;
30096;SDS011;16915;51.466;3.610;2023-03-14T07:06:13;1.27;;;0.32;;
30096;SDS011;16915;51.466;3.610;2023-03-14T07:08:38;4.97;;;0.40;;
30096;SDS011;16915;51.466;3.610;2023-03-14T07:11:04;3.55;;;0.50;;
30096;SDS011;16915;51.466;3.610;2023-03-14T07:13:30;3.42;;;0.40;;
30096;SDS011;16915;51.466;3.610;2023-03-14T07:15:55;1.70;;;0.50;;
30096;SDS011;16915;51.466;3.610;2023-03-14T07:18:21;5.40;;;0.80;;
30096;SDS011;16915;51.466;3.610;2023-03-14T07:20:46;5.35;;;0.70;;
30096;SDS011;16915;51.466;3.610;2023-03-14T07:23:12;5.32;;;0.55;;
30096;SDS011;16915;51.466;3.610;2023-03-14T07:25:38;5.20;;;0.60;;
30096;SDS011;16915;51.466;3.610;2023-03-14T07:28:03;6.00;;;0.98;;
30096;SDS011;16915;51.466;3.610;2023-03-14T07:30:29;5.22;;;0.60;;
30096;SDS011;16915;51.466;3.610;2023-03-14T07:32:55;7.80;;;0.93;;
30096;SDS011;16915;51.466;3.610;2023-03-14T07:35:20;3.13;;;0.85;;
30096;SDS011;16915;51.466;3.610;2023-03-14T07:37:46;5.57;;;0.75;;
30096;SDS011;16915;51.466;3.610;2023-03-14T07:40:11;2.75;;;0.60;;
30096;SDS011;16915;51.466;3.610;2023-03-14T07:42:40;6.03;;;0.75;;
30096;SDS011;16915;51.466;3.610;2023-03-14T07:45:07;6.15;;;0.77;;
30096;SDS011;16915;51.466;3.610;2023-03-14T07:47:33;2.65;;;0.50;;
30096;SDS011;16915;51.466;3.610;2023-03-14T07:49:59;5.53;;;0.55;;
30096;SDS011;16915;51.466;3.610;2023-03-14T07:52:24;2.83;;;0.65;;
30096;SDS011;16915;51.466;3.610;2023-03-14T07:54:50;7.53;;;1.02;;
30096;SDS011;16915;51.466;3.610;2023-03-14T07:57:15;5.80;;;1.10;;
30096;SDS011;16915;51.466;3.610;2023-03-14T07:59:41;3.38;;;0.80;;
30096;SDS011;16915;51.466;3.610;2023-03-14T08:02:09;2.42;;;0.65;;
30096;SDS011;16915;51.466;3.610;2023-03-14T08:04:36;2.38;;;0.57;;
30096;SDS011;16915;51.466;3.610;2023-03-14T08:07:02;7.28;;;1.02;;
30096;SDS011;16915;51.466;3.610;2023-03-14T08:09:28;4.95;;;1.73;;
30096;SDS011;16915;51.466;3.610;2023-03-14T08:11:54;6.82;;;0.75;;
30096;SDS011;16915;51.466;3.610;2023-03-14T08:14:19;1.90;;;0.77;;
30096;SDS011;16915;51.466;3.610;2023-03-14T08:16:48;6.80;;;0.65;;
30096;SDS011;16915;51.466;3.610;2023-03-14T08:19:15;1.52;;;0.40;;
30096;SDS011;16915;51.466;3.610;2023-03-14T08:21:40;3.65;;;0.52;;
30096;SDS011;16915;51.466;3.610;2023-03-14T08:24:06;2.38;;;0.68;;
30096;SDS011;16915;51.466;3.610;2023-03-14T08:26:32;5.32;;;0.85;;
30096;SDS011;16915;51.466;3.610;2023-03-14T08:28:57;7.05;;;0.98;;
30096;SDS011;16915;51.466;3.610;2023-03-14T08:31:23;1.65;;;0.52;;
30096;SDS011;16915;51.466;3.610;2023-03-14T08:33:49;2.35;;;0.50;;
30096;SDS011;16915;51.466;3.610;2023-03-14T08:36:16;3.47;;;0.52;;
30096;SDS011;16915;51.466;3.610;2023-03-14T08:38:43;7.13;;;1.10;;
30096;SDS011;16915;51.466;3.610;2023-03-14T08:41:08;6.82;;;0.90;;
30096;SDS011;16915;51.466;3.610;2023-03-14T08:43:34;6.38;;;1.33;;
30096;SDS011;16915;51.466;3.610;2023-03-14T08:46:00;2.50;;;0.70;;
30096;SDS011;16915;51.466;3.610;2023-03-14T08:48:26;7.65;;;0.73;;
30096;SDS011;16915;51.466;3.610;2023-03-14T08:50:54;8.93;;;1.08;;
30096;SDS011;16915;51.466;3.610;2023-03-14T08:53:20;12.75;;;0.90;;
30096;SDS011;16915;51.466;3.610;2023-03-14T08:55:47;3.92;;;0.95;;
30096;SDS011;16915;51.466;3.610;2023-03-14T08:58:17;8.50;;;0.60;;
30096;SDS011;16915;51.466;3.610;2023-03-14T09:00:42;4.72;;;1.05;;
30096;SDS011;16915;51.466;3.610;2023-03-14T09:03:08;7.75;;;0.77;;
30096;SDS011;16915;51.466;3.610;2023-03-14T09:05:33;8.32;;;0.85;;
30096;SDS011;16915;51.466;3.610;2023-03-14T09:07:59;9.32;;;0.57;;
30096;SDS011;16915;51.466;3.610;2023-03-14T09:10:25;2.65;;;0.80;;
30096;SDS011;16915;51.466;3.610;2023-03-14T09:12:51;10.10;;;0.80;;
30096;SDS011;16915;51.466;3.610;2023-03-14T09:15:16;11.65;;;0.80;;
30096;SDS011;16915;51.466;3.610;2023-03-14T09:17:43;11.75;;;1.00;;
30096;SDS011;16915;51.466;3.610;2023-03-14T09:20:09;6.55;;;0.63;;
30096;SDS011;16915;51.466;3.610;2023-03-14T09:22:35;7.43;;;1.33;;
30096;SDS011;16915;51.466;3.610;2023-03-14T09:25:02;6.57;;;1.00;;
30096;SDS011;16915;51.466;3.610;2023-03-14T09:27:28;10.13;;;1.00;;
30096;SDS011;16915;51.466;3.610;2023-03-14T09:29:54;11.93;;;1.48;;
30096;SDS011;16915;51.466;3.610;2023-03-14T09:32:19;6.18;;;1.00;;
30096;SDS011;16915;51.466;3.610;2023-03-14T09:34:45;7.20;;;0.95;;
30096;SDS011;16915;51.466;3.610;2023-03-14T09:37:10;7.32;;;0.85;;
30096;SDS011;16915;51.466;3.610;2023-03-14T09:39:36;6.75;;;1.13;;
30096;SDS011;16915;51.466;3.610;2023-03-14T09:42:02;12.27;;;1.08;;
30096;SDS011;16915;51.466;3.610;2023-03-14T09:44:32;15.15;;;1.67;;
30096;SDS011;16915;51.466;3.610;2023-03-14T09:47:07;8.10;;;1.00;;
30096;SDS011;16915;51.466;3.610;2023-03-14T09:49:37;7.68;;;1.10;;
30096;SDS011;16915;51.466;3.610;2023-03-14T09:52:07;13.13;;;1.20;;
30096;SDS011;16915;51.466;3.610;2023-03-14T09:54:47;10.88;;;0.90;;
30096;SDS011;16915;51.466;3.610;2023-03-14T09:57:18;9.82;;;1.25;;
30096;SDS011;16915;51.466;3.610;2023-03-14T09:59:45;9.40;;;1.35;;
30096;SDS011;16915;51.466;3.610;2023-03-14T10:02:19;10.77;;;1.42;;
30096;SDS011;16915;51.466;3.610;2023-03-14T10:04:47;8.90;;;1.95;;
30096;SDS011;16915;51.466;3.610;2023-03-14T10:07:15;7.28;;;1.23;;
30096;SDS011;16915;51.466;3.610;2023-03-14T10:09:44;12.43;;;1.38;;
30096;SDS011;16915;51.466;3.610;2023-03-14T10:12:12;8.95;;;1.35;;
30096;SDS011;16915;51.466;3.610;2023-03-14T10:14:44;13.15;;;1.48;;
30096;SDS011;16915;51.466;3.610;2023-03-14T10:17:18;13.43;;;1.65;;
30096;SDS011;16915;51.466;3.610;2023-03-14T10:19:57;14.57;;;1.70;;
30096;SDS011;16915;51.466;3.610;2023-03-14T10:22:25;13.15;;;2.10;;
30096;SDS011;16915;51.466;3.610;2023-03-14T10:24:55;7.35;;;1.10;;
30096;SDS011;16915;51.466;3.610;2023-03-14T10:27:28;4.72;;;0.73;;
30096;SDS011;16915;51.466;3.610;2023-03-14T10:29:57;10.57;;;0.80;;
30096;SDS011;16915;51.466;3.610;2023-03-14T10:32:32;8.50;;;1.10;;
30096;SDS011;16915;51.466;3.610;2023-03-14T10:40:27;9.13;;;1.45;;
30096;SDS011;16915;51.466;3.610;2023-03-14T10:42:57;8.68;;;1.35;;
30096;SDS011;16915;51.466;3.610;2023-03-14T10:50:47;12.82;;;1.98;;
30096;SDS011;16915;51.466;3.610;2023-03-14T10:53:49;13.32;;;1.63;;
30096;SDS011;16915;51.466;3.610;2023-03-14T10:56:43;13.27;;;1.67;;
30096;SDS011;16915;51.466;3.610;2023-03-14T10:59:13;8.60;;;1.40;;
30096;SDS011;16915;51.466;3.610;2023-03-14T11:09:56;11.55;;;1.73;;
30096;SDS011;16915;51.466;3.610;2023-03-14T11:20:44;19.48;;;2.55;;
30096;SDS011;16915;51.466;3.610;2023-03-14T11:23:16;19.27;;;2.38;;
30096;SDS011;16915;51.466;3.610;2023-03-14T11:25:49;16.63;;;2.28;;
30096;SDS011;16915;51.466;3.610;2023-03-14T11:28:23;27.15;;;3.45;;
30096;SDS011;16915;51.466;3.610;2023-03-14T11:31:04;17.60;;;2.58;;
30096;SDS011;16915;51.466;3.610;2023-03-14T11:37:00;19.30;;;2.50;;
30096;SDS011;16915;51.466;3.610;2023-03-14T11:39:36;22.05;;;2.47;;
30096;SDS011;16915;51.466;3.610;2023-03-14T11:42:07;21.38;;;2.28;;
30096;SDS011;16915;51.466;3.610;2023-03-14T11:44:38;21.23;;;2.53;;
30096;SDS011;16915;51.466;3.610;2023-03-14T11:52:50;15.33;;;2.10;;
30096;SDS011;16915;51.466;3.610;2023-03-14T11:55:36;10.77;;;1.45;;
30096;SDS011;16915;51.466;3.610;2023-03-14T11:58:12;13.70;;;2.00;;
30096;SDS011;16915;51.466;3.610;2023-03-14T12:01:09;15.30;;;1.50;;
30096;SDS011;16915;51.466;3.610;2023-03-14T12:03:45;10.75;;;1.48;;
30096;SDS011;16915;51.466;3.610;2023-03-14T12:09:03;17.05;;;1.40;;
30096;SDS011;16915;51.466;3.610;2023-03-14T12:14:03;9.70;;;1.83;;
30096;SDS011;16915;51.466;3.610;2023-03-14T12:16:45;14.45;;;2.25;;
30096;SDS011;16915;51.466;3.610;2023-03-14T12:19:14;15.40;;;2.47;;
30096;SDS011;16915;51.466;3.610;2023-03-14T12:21:53;10.02;;;1.73;;
30096;SDS011;16915;51.466;3.610;2023-03-14T12:24:26;8.43;;;1.73;;
30096;SDS011;16915;51.466;3.610;2023-03-14T12:29:23;7.35;;;1.33;;
30096;SDS011;16915;51.466;3.610;2023-03-14T12:32:12;11.23;;;1.50;;
30096;SDS011;16915;51.466;3.610;2023-03-14T12:34:46;10.60;;;1.48;;
30096;SDS011;16915;51.466;3.610;2023-03-14T12:37:14;10.63;;;1.67;;
30096;SDS011;16915;51.466;3.610;2023-03-14T12:42:55;11.10;;;1.50;;
30096;SDS011;16915;51.466;3.610;2023-03-14T12:45:30;10.13;;;1.58;;
30096;SDS011;16915;51.466;3.610;2023-03-14T12:51:11;11.82;;;1.65;;
30096;SDS011;16915;51.466;3.610;2023-03-14T12:59:09;7.82;;;1.67;;
30096;SDS011;16915;51.466;3.610;2023-03-14T13:04:44;5.28;;;0.40;;
30096;SDS011;16915;51.466;3.610;2023-03-14T13:07:29;2.47;;;0.25;;
30096;SDS011;16915;51.466;3.610;2023-03-14T13:12:56;2.47;;;0.38;;
30096;SDS011;16915;51.466;3.610;2023-03-14T13:15:41;2.70;;;0.30;;
30096;SDS011;16915;51.466;3.610;2023-03-14T13:18:16;2.65;;;0.70;;
30096;SDS011;16915;51.466;3.610;2023-03-14T13:20:54;1.40;;;0.63;;
30096;SDS011;16915;51.466;3.610;2023-03-14T13:23:25;2.72;;;0.50;;
30096;SDS011;16915;51.466;3.610;2023-03-14T13:25:52;2.53;;;0.68;;
30096;SDS011;16915;51.466;3.610;2023-03-14T13:28:17;4.97;;;1.05;;
30096;SDS011;16915;51.466;3.610;2023-03-14T13:30:45;4.10;;;1.08;;
30096;SDS011;16915;51.466;3.610;2023-03-14T13:33:20;8.35;;;0.98;;
30096;SDS011;16915;51.466;3.610;2023-03-14T13:35:57;5.90;;;0.93;;
30096;SDS011;16915;51.466;3.610;2023-03-14T13:38:28;5.85;;;0.80;;
30096;SDS011;16915;51.466;3.610;2023-03-14T13:40:56;8.13;;;0.98;;
30096;SDS011;16915;51.466;3.610;2023-03-14T13:48:27;7.20;;;1.27;;
30096;SDS011;16915;51.466;3.610;2023-03-14T13:51:27;6.55;;;0.90;;
30096;SDS011;16915;51.466;3.610;2023-03-14T13:56:13;9.90;;;0.88;;
30096;SDS011;16915;51.466;3.610;2023-03-14T13:58:40;4.93;;;1.10;;
30096;SDS011;16915;51.466;3.610;2023-03-14T14:03:54;6.47;;;1.35;;
30096;SDS011;16915;51.466;3.610;2023-03-14T14:06:29;9.68;;;1.20;;
30096;SDS011;16915;51.466;3.610;2023-03-14T14:09:13;8.73;;;1.13;;
30096;SDS011;16915;51.466;3.610;2023-03-14T14:11:42;9.02;;;1.25;;
30096;SDS011;16915;51.466;3.610;2023-03-14T14:14:15;6.97;;;1.10;;
30096;SDS011;16915;51.466;3.610;2023-03-14T14:16:46;15.27;;;1.20;;
30096;SDS011;16915;51.466;3.610;2023-03-14T14:19:12;9.07;;;1.10;;
30096;SDS011;16915;51.466;3.610;2023-03-14T14:21:40;8.32;;;1.30;;
30096;SDS011;16915;51.466;3.610;2023-03-14T14:24:07;2.67;;;0.80;;
30096;SDS011;16915;51.466;3.610;2023-03-14T14:26:52;5.07;;;0.90;;
30096;SDS011;16915;51.466;3.610;2023-03-14T14:29:26;6.40;;;1.00;;
30096;SDS011;16915;51.466;3.610;2023-03-14T14:32:01;7.85;;;1.25;;
30096;SDS011;16915;51.466;3.610;2023-03-14T14:34:28;12.45;;;1.63;;
30096;SDS011;16915;51.466;3.610;2023-03-14T14:36:54;12.73;;;1.50;;
30096;SDS011;16915;51.466;3.610;2023-03-14T14:39:24;12.27;;;1.40;;
30096;SDS011;16915;51.466;3.610;2023-03-14T14:41:53;4.75;;;1.40;;
30096;SDS011;16915;51.466;3.610;2023-03-14T14:44:35;8.05;;;1.10;;
30096;SDS011;16915;51.466;3.610;2023-03-14T14:47:04;9.77;;;1.50;;
30096;SDS011;16915;51.466;3.610;2023-03-14T14:49:30;6.30;;;1.52;;
30096;SDS011;16915;51.466;3.610;2023-03-14T14:52:06;5.38;;;1.08;;
30096;SDS011;16915;51.466;3.610;2023-03-14T14:54:38;7.47;;;1.20;;
30096;SDS011;16915;51.466;3.610;2023-03-14T14:57:17;5.75;;;1.13;;
30096;SDS011;16915;51.466;3.610;2023-03-14T15:00:16;8.90;;;1.00;;
30096;SDS011;16915;51.466;3.610;2023-03-14T15:02:45;9.90;;;1.05;;
30096;SDS011;16915;51.466;3.610;2023-03-14T15:05:16;9.20;;;1.08;;
30096;SDS011;16915;51.466;3.610;2023-03-14T15:10:14;7.50;;;1.05;;
30096;SDS011;16915;51.466;3.610;2023-03-14T15:12:42;9.55;;;1.50;;
30096;SDS011;16915;51.466;3.610;2023-03-14T15:15:08;6.38;;;1.30;;
30096;SDS011;16915;51.466;3.610;2023-03-14T15:17:34;7.72;;;1.30;;
30096;SDS011;16915;51.466;3.610;2023-03-14T15:20:01;7.70;;;1.40;;
30096;SDS011;16915;51.466;3.610;2023-03-14T15:22:29;7.20;;;1.20;;
30096;SDS011;16915;51.466;3.610;2023-03-14T15:24:54;9.00;;;1.20;;
30096;SDS011;16915;51.466;3.610;2023-03-14T15:27:20;6.60;;;1.55;;
30096;SDS011;16915;51.466;3.610;2023-03-14T15:29:45;9.25;;;1.38;;
30096;SDS011;16915;51.466;3.610;2023-03-14T15:32:12;8.13;;;1.35;;
30096;SDS011;16915;51.466;3.610;2023-03-14T15:34:39;3.75;;;1.13;;
30096;SDS011;16915;51.466;3.610;2023-03-14T15:37:05;6.22;;;0.95;;
30096;SDS011;16915;51.466;3.610;2023-03-14T15:39:34;4.88;;;1.23;;
30096;SDS011;16915;51.466;3.610;2023-03-14T15:42:00;4.72;;;1.10;;
30096;SDS011;16915;51.466;3.610;2023-03-14T15:44:25;7.90;;;1.13;;
30096;SDS011;16915;51.466;3.610;2023-03-14T15:46:51;6.88;;;0.90;;
30096;SDS011;16915;51.466;3.610;2023-03-14T15:49:16;12.15;;;1.00;;
30096;SDS011;16915;51.466;3.610;2023-03-14T15:51:42;7.10;;;1.00;;
30096;SDS011;16915;51.466;3.610;2023-03-14T15:54:07;5.90;;;1.05;;
30096;SDS011;16915;51.466;3.610;2023-03-14T15:56:33;7.28;;;1.70;;
30096;SDS011;16915;51.466;3.610;2023-03-14T15:58:59;7.80;;;1.10;;
30096;SDS011;16915;51.466;3.610;2023-03-14T16:01:24;7.53;;;1.48;;
30096;SDS011;16915;51.466;3.610;2023-03-14T16:03:50;7.68;;;1.35;;
30096;SDS011;16915;51.466;3.610;2023-03-14T16:06:17;5.93;;;0.93;;
30096;SDS011;16915;51.466;3.610;2023-03-14T16:08:43;7.93;;;0.77;;
30096;SDS011;16915;51.466;3.610;2023-03-14T16:11:10;4.85;;;0.90;;
30096;SDS011;16915;51.466;3.610;2023-03-14T16:13:37;12.60;;;1.20;;
30096;SDS011;16915;51.466;3.610;2023-03-14T16:16:04;6.80;;;1.35;;
30096;SDS011;16915;51.466;3.610;2023-03-14T16:18:32;7.60;;;0.90;;
30096;SDS011;16915;51.466;3.610;2023-03-14T16:20:59;10.43;;;1.10;;
30096;SDS011;16915;51.466;3.610;2023-03-14T16:23:27;10.60;;;1.92;;
30096;SDS011;16915;51.466;3.610;2023-03-14T16:25:53;6.90;;;1.15;;
30096;SDS011;16915;51.466;3.610;2023-03-14T16:28:20;8.45;;;1.23;;
30096;SDS011;16915;51.466;3.610;2023-03-14T16:30:45;4.40;;;0.88;;